createdAt,value
2022-08-22T00:00:44.188Z,1.40
2022-08-22T00:02:58.606Z,1.33
2022-08-22T00:03:08.439Z,1.20
2022-08-22T00:03:28.511Z,1.50
2022-08-22T00:06:09.241Z,1.50
2022-08-22T00:08:44.154Z,1.35
2022-08-22T00:11:17.816Z,1.45
2022-08-22T00:13:59.243Z,1.35
2022-08-22T00:16:34.672Z,1.50
2022-08-22T00:19:08.628Z,1.38
2022-08-22T00:21:43.375Z,1.33
2022-08-22T00:24:16.173Z,1.40
2022-08-22T00:26:47.118Z,1.50
2022-08-22T00:31:49.874Z,1.50
2022-08-22T00:34:24.241Z,1.40
2022-08-22T00:37:00.507Z,1.40
2022-08-22T00:39:31.612Z,1.30
2022-08-22T00:42:31.656Z,1.60
2022-08-22T00:45:31.895Z,1.30
2022-08-22T00:48:11.087Z,1.40
2022-08-22T00:51:14.029Z,1.50
2022-08-22T00:53:52.147Z,1.10
2022-08-22T00:56:37.842Z,1.80
2022-08-22T00:59:23.968Z,1.50
2022-08-22T01:01:55.289Z,1.30
2022-08-22T01:04:42.819Z,1.58
2022-08-22T01:07:20.502Z,1.75
2022-08-22T01:09:55.148Z,1.60
2022-08-22T01:12:36.302Z,1.63
2022-08-22T01:15:07.651Z,1.50
2022-08-22T01:17:52.251Z,1.50
2022-08-22T01:20:54.620Z,1.35
2022-08-22T01:23:44.166Z,1.35
2022-08-22T01:26:54.289Z,1.60
2022-08-22T01:29:42.497Z,1.50
2022-08-22T01:32:34.679Z,1.52
2022-08-22T01:35:26.483Z,1.52
2022-08-22T01:38:02.560Z,1.30
2022-08-22T01:41:10.582Z,1.40
2022-08-22T01:44:00.019Z,1.50
2022-08-22T01:46:39.935Z,1.70
2022-08-22T01:49:13.746Z,1.40
2022-08-22T01:51:48.066Z,1.50
2022-08-22T01:54:26.010Z,1.60
2022-08-22T01:56:55.442Z,1.45
2022-08-22T01:59:27.569Z,1.42
2022-08-22T02:02:07.959Z,1.70
2022-08-22T02:04:42.337Z,1.70
2022-08-22T02:07:15.903Z,1.70
2022-08-22T02:09:49.354Z,1.40
2022-08-22T02:12:31.533Z,1.40
2022-08-22T02:15:17.237Z,1.60
2022-08-22T02:18:14.464Z,1.40
2022-08-22T02:20:46.804Z,1.60
2022-08-22T02:23:27.082Z,1.55
2022-08-22T02:25:59.123Z,1.52
2022-08-22T02:28:34.993Z,1.50
2022-08-22T02:31:06.580Z,1.60
2022-08-22T02:33:52.721Z,1.70
2022-08-22T02:36:23.809Z,1.70
2022-08-22T02:39:01.193Z,1.70
2022-08-22T02:41:33.062Z,1.70
2022-08-22T02:44:05.667Z,1.50
2022-08-22T02:46:42.659Z,1.60
2022-08-22T02:49:15.230Z,1.33
2022-08-22T02:51:48.441Z,1.50
2022-08-22T02:54:23.697Z,1.58
2022-08-22T02:56:56.755Z,1.60
2022-08-22T02:59:33.363Z,1.60
2022-08-22T03:02:28.860Z,1.70
2022-08-22T03:04:59.150Z,1.60
2022-08-22T03:07:37.132Z,1.90
2022-08-22T03:10:16.605Z,1.50
2022-08-22T03:12:53.599Z,1.58
2022-08-22T03:15:28.899Z,1.70
2022-08-22T03:18:04.604Z,1.75
2022-08-22T03:20:55.651Z,1.60
2022-08-22T03:26:07.532Z,1.75
2022-08-22T03:28:39.842Z,1.85
2022-08-22T03:31:29.345Z,1.60
2022-08-22T03:34:23.410Z,1.80
2022-08-22T03:37:02.748Z,1.65
2022-08-22T03:39:49.847Z,1.60
2022-08-22T03:42:47.787Z,1.55
2022-08-22T03:45:29.303Z,1.50
2022-08-22T03:48:16.460Z,1.85
2022-08-22T03:51:05.978Z,1.77
2022-08-22T03:54:12.806Z,1.85
2022-08-22T03:57:20.113Z,1.88
2022-08-22T04:00:18.426Z,1.60
2022-08-22T04:03:06.538Z,1.70
2022-08-22T04:05:58.948Z,1.77
2022-08-22T04:08:54.930Z,1.70
2022-08-22T04:11:39.573Z,1.50
2022-08-22T04:14:25.686Z,1.60
2022-08-22T04:17:39.458Z,1.83
2022-08-22T04:20:39.429Z,1.63
2022-08-22T04:23:30.417Z,1.63
2022-08-22T04:26:01.416Z,1.77
2022-08-22T04:28:42.403Z,1.85
2022-08-22T04:31:13.327Z,1.88
2022-08-22T04:36:18.997Z,1.50
2022-08-22T04:38:50.983Z,1.58
2022-08-22T04:41:24.536Z,1.60
2022-08-22T04:43:56.223Z,1.90
2022-08-22T04:46:33.617Z,1.80
2022-08-22T04:49:08.179Z,1.73
2022-08-22T04:51:43.122Z,1.65
2022-08-22T04:54:22.800Z,1.80
2022-08-22T04:56:57.929Z,2.00
2022-08-22T04:59:27.495Z,1.85
2022-08-22T05:02:06.206Z,1.80
2022-08-22T05:04:37.281Z,2.00
2022-08-22T05:09:40.896Z,1.65
2022-08-22T05:12:12.119Z,1.75
2022-08-22T05:14:43.163Z,1.90
2022-08-22T05:19:50.582Z,1.70
2022-08-22T05:22:26.587Z,1.70
2022-08-22T05:24:58.702Z,2.17
2022-08-22T05:27:29.013Z,1.90
2022-08-22T05:30:04.874Z,1.50
2022-08-22T05:32:35.617Z,2.03
2022-08-22T05:35:06.268Z,1.75
2022-08-22T05:37:42.607Z,1.75
2022-08-22T05:40:13.495Z,1.80
2022-08-22T05:45:16.421Z,1.88
2022-08-22T05:47:47.741Z,1.75
2022-08-22T05:50:19.290Z,1.90
2022-08-22T05:53:02.736Z,1.70
2022-08-22T05:55:33.817Z,1.70
2022-08-22T05:58:31.284Z,1.80
2022-08-22T06:01:02.600Z,1.75
2022-08-22T06:03:34.107Z,1.80
2022-08-22T06:06:06.306Z,1.90
2022-08-22T06:08:40.069Z,2.00
2022-08-22T06:11:10.369Z,1.90
2022-08-22T06:13:41.786Z,1.80
2022-08-22T06:16:12.912Z,1.80
2022-08-22T06:18:43.872Z,1.80
2022-08-22T06:21:15.194Z,1.70
2022-08-22T06:23:48.362Z,2.30
2022-08-22T06:26:21.022Z,2.13
2022-08-22T06:28:55.403Z,1.90
2022-08-22T06:31:26.843Z,2.05
2022-08-22T06:33:58.429Z,1.75
2022-08-22T06:36:34.086Z,1.70
2022-08-22T06:39:14.782Z,1.80
2022-08-22T06:41:47.486Z,1.80
2022-08-22T06:44:17.829Z,1.70
2022-08-22T06:46:47.459Z,2.00
2022-08-22T06:49:16.911Z,1.80
2022-08-22T06:51:46.670Z,1.95
2022-08-22T06:54:21.681Z,2.00
2022-08-22T06:56:52.021Z,1.90
2022-08-22T06:59:23.384Z,1.98
2022-08-22T07:01:54.239Z,1.95
2022-08-22T07:06:57.506Z,2.00
2022-08-22T07:12:00.370Z,1.90
2022-08-22T07:14:32.352Z,2.10
2022-08-22T07:17:02.693Z,1.92
2022-08-22T07:19:35.018Z,2.13
2022-08-22T07:22:14.462Z,1.75
2022-08-22T07:24:50.846Z,2.05
2022-08-22T07:27:25.382Z,2.10
2022-08-22T07:30:01.306Z,2.00
2022-08-22T07:32:32.255Z,1.90
2022-08-22T07:38:02.293Z,2.20
2022-08-22T07:40:37.309Z,1.85
2022-08-22T07:43:13.495Z,2.10
2022-08-22T07:45:46.282Z,2.40
2022-08-22T07:48:26.237Z,2.35
2022-08-22T07:51:04.554Z,2.90
2022-08-22T07:53:39.654Z,2.38
2022-08-22T07:56:14.311Z,2.50
2022-08-22T07:58:43.757Z,2.65
2022-08-22T08:01:13.531Z,2.22
2022-08-22T08:03:43.017Z,2.30
2022-08-22T08:06:13.285Z,2.45
2022-08-22T08:08:44.288Z,2.53
2022-08-22T08:11:17.392Z,2.40
2022-08-22T08:13:49.296Z,2.45
2022-08-22T08:16:19.944Z,2.10
2022-08-22T08:18:50.462Z,2.20
2022-08-22T08:21:28.808Z,2.30
2022-08-22T08:23:58.318Z,2.40
2022-08-22T08:26:32.806Z,2.40
2022-08-22T08:28:59.906Z,2.40
2022-08-22T08:31:31.966Z,2.60
2022-08-22T08:34:03.893Z,2.33
2022-08-22T08:36:42.202Z,2.50
2022-08-22T08:39:21.602Z,2.15
2022-08-22T08:42:13.068Z,2.50
2022-08-22T08:45:10.810Z,2.75
2022-08-22T08:47:47.973Z,2.40
2022-08-22T08:50:29.375Z,2.25
2022-08-22T08:53:21.915Z,2.60
2022-08-22T08:55:53.874Z,2.47
2022-08-22T08:58:40.474Z,2.53
2022-08-22T09:01:20.508Z,2.70
2022-08-22T09:04:32.706Z,2.85
2022-08-22T09:07:27.807Z,2.38
2022-08-22T09:10:21.776Z,2.50
2022-08-22T09:13:12.344Z,2.42
2022-08-22T09:16:05.000Z,2.45
2022-08-22T09:19:03.999Z,2.50
2022-08-22T09:22:00.902Z,2.40
2022-08-22T09:24:52.458Z,2.20
2022-08-22T09:27:29.274Z,2.45
2022-08-22T09:30:05.636Z,2.78
2022-08-22T09:32:45.629Z,2.92
2022-08-22T09:35:22.506Z,2.92
2022-08-22T09:38:08.522Z,2.70
2022-08-22T09:40:42.579Z,2.50
2022-08-22T09:43:13.329Z,2.40
2022-08-22T09:45:52.791Z,2.50
2022-08-22T09:48:36.255Z,2.90
2022-08-22T09:51:32.464Z,2.47
2022-08-22T09:54:22.984Z,2.53
2022-08-22T09:57:15.940Z,2.78
2022-08-22T10:00:22.427Z,2.65
2022-08-22T10:03:04.076Z,2.50
2022-08-22T10:05:44.062Z,2.30
2022-08-22T10:11:03.630Z,2.95
2022-08-22T10:13:40.609Z,2.50
2022-08-22T10:16:22.915Z,2.30
2022-08-22T10:18:57.960Z,2.60
2022-08-22T10:21:37.325Z,2.50
2022-08-22T10:24:10.528Z,2.47
2022-08-22T10:26:44.879Z,2.47
2022-08-22T10:29:34.932Z,2.70
2022-08-22T10:32:14.454Z,2.55
2022-08-22T10:34:47.223Z,2.63
2022-08-22T10:37:25.297Z,2.90
2022-08-22T10:39:58.623Z,2.70
2022-08-22T10:42:31.218Z,2.53
2022-08-22T10:45:23.975Z,2.30
2022-08-22T10:48:35.149Z,2.58
2022-08-22T10:51:13.099Z,2.58
2022-08-22T10:53:58.646Z,2.60
2022-08-22T10:56:31.422Z,2.20
2022-08-22T10:59:06.064Z,2.20
2022-08-22T11:01:42.108Z,2.10
2022-08-22T11:04:14.938Z,2.58
2022-08-22T11:06:47.516Z,2.10
2022-08-22T11:09:31.195Z,2.30
2022-08-22T11:12:05.386Z,2.30
2022-08-22T11:15:10.195Z,2.50
2022-08-22T11:18:13.040Z,2.70
2022-08-22T11:20:48.209Z,2.50
2022-08-22T11:23:22.609Z,2.55
2022-08-22T11:25:56.934Z,2.50
2022-08-22T11:28:56.896Z,1.92
2022-08-22T11:31:47.305Z,2.33
2022-08-22T11:34:28.271Z,2.35
2022-08-22T11:36:59.515Z,2.28
2022-08-22T11:39:31.955Z,2.13
2022-08-22T11:42:08.164Z,2.13
2022-08-22T11:44:50.356Z,2.15
2022-08-22T11:47:26.602Z,2.00
2022-08-22T11:50:00.852Z,2.58
2022-08-22T11:52:51.940Z,2.30
2022-08-22T11:55:33.218Z,2.17
2022-08-22T11:58:13.417Z,2.30
2022-08-22T12:00:49.362Z,2.40
2022-08-22T12:03:38.074Z,2.50
2022-08-22T12:06:11.677Z,2.40
2022-08-22T12:09:10.555Z,2.30
2022-08-22T12:11:43.843Z,2.47
2022-08-22T12:14:22.274Z,2.50
2022-08-22T12:17:03.627Z,2.20
2022-08-22T12:19:35.682Z,2.30
2022-08-22T12:22:50.488Z,2.13
2022-08-22T12:25:25.125Z,2.25
2022-08-22T12:28:03.267Z,2.28
2022-08-22T12:30:37.910Z,2.30
2022-08-22T12:33:22.962Z,2.20
2022-08-22T12:35:58.443Z,2.25
2022-08-22T12:38:37.827Z,2.40
2022-08-22T12:41:35.171Z,2.30
2022-08-22T12:44:23.065Z,2.20
2022-08-22T12:47:04.582Z,2.10
2022-08-22T12:49:40.477Z,1.92
2022-08-22T12:52:21.365Z,2.40
2022-08-22T12:55:26.507Z,2.10
2022-08-22T12:58:02.004Z,2.30
2022-08-22T13:00:34.723Z,2.00
2022-08-22T13:03:09.586Z,2.08
2022-08-22T13:05:40.848Z,2.13
2022-08-22T13:08:12.686Z,2.13
2022-08-22T13:10:45.383Z,2.15
2022-08-22T13:13:17.270Z,1.90
2022-08-22T13:16:00.085Z,2.20
2022-08-22T13:18:36.153Z,2.00
2022-08-22T13:21:11.493Z,1.88
2022-08-22T13:23:45.135Z,2.00
2022-08-22T13:26:32.982Z,1.90
2022-08-22T13:29:26.111Z,1.83
2022-08-22T13:31:59.226Z,2.22
2022-08-22T13:34:40.557Z,1.88
2022-08-22T13:37:15.327Z,2.05
2022-08-22T13:39:46.568Z,1.95
2022-08-22T13:42:27.912Z,1.80
2022-08-22T13:45:02.211Z,2.00
2022-08-22T13:47:34.369Z,1.80
2022-08-22T13:50:14.828Z,1.75
2022-08-22T13:52:49.385Z,2.15
2022-08-22T13:55:27.559Z,2.10
2022-08-22T13:58:02.315Z,1.80
2022-08-22T14:01:21.655Z,1.80
2022-08-22T14:03:57.931Z,1.83
2022-08-22T14:06:38.374Z,2.10
2022-08-22T14:09:31.547Z,1.90
2022-08-22T14:12:11.997Z,1.90
2022-08-22T14:14:43.259Z,2.10
2022-08-22T14:17:17.791Z,1.98
2022-08-22T14:19:58.914Z,1.80
2022-08-22T14:22:35.013Z,1.80
2022-08-22T14:25:07.521Z,1.90
2022-08-22T14:27:39.734Z,1.90
2022-08-22T14:30:15.097Z,1.80
2022-08-22T14:32:46.919Z,1.90
2022-08-22T14:35:34.879Z,1.80
2022-08-22T14:40:49.602Z,1.92
2022-08-22T14:43:22.454Z,1.90
2022-08-22T14:45:57.841Z,1.77
2022-08-22T14:48:35.431Z,2.10
2022-08-22T14:51:10.152Z,2.30
2022-08-22T14:53:42.945Z,2.40
2022-08-22T14:56:14.842Z,2.15
2022-08-22T14:58:49.806Z,2.60
2022-08-22T15:01:23.812Z,2.10
2022-08-22T15:03:55.255Z,2.10
2022-08-22T15:06:37.879Z,2.10
2022-08-22T15:09:10.918Z,2.00
2022-08-22T15:11:42.156Z,2.20
2022-08-22T15:14:16.045Z,2.10
2022-08-22T15:16:48.674Z,2.05
2022-08-22T15:19:25.136Z,2.15
2022-08-22T15:21:54.655Z,2.10
2022-08-22T15:24:28.494Z,2.50
2022-08-22T15:26:58.334Z,2.00
2022-08-22T15:29:29.125Z,2.13
2022-08-22T15:32:00.301Z,2.10
2022-08-22T15:34:34.987Z,2.00
2022-08-22T15:37:29.631Z,2.50
2022-08-22T15:40:33.157Z,2.20
2022-08-22T15:43:21.525Z,2.00
2022-08-22T15:45:51.650Z,2.00
2022-08-22T15:48:32.583Z,2.10
2022-08-22T15:51:04.662Z,1.95
2022-08-22T15:54:03.581Z,2.00
2022-08-22T15:57:07.563Z,2.10
2022-08-22T15:59:53.610Z,2.13
2022-08-22T16:02:27.092Z,2.30
2022-08-22T16:05:03.240Z,1.95
2022-08-22T16:07:41.853Z,2.00
2022-08-22T16:10:14.142Z,2.15
2022-08-22T16:12:47.737Z,2.03
2022-08-22T16:15:47.061Z,2.00
2022-08-22T16:18:46.407Z,2.30
2022-08-22T16:21:16.098Z,1.80
2022-08-22T16:24:15.429Z,1.90
2022-08-22T16:26:44.937Z,1.90
2022-08-22T16:29:37.646Z,2.10
2022-08-22T16:32:11.634Z,2.35
2022-08-22T16:34:45.929Z,2.00
2022-08-22T16:37:37.164Z,2.17
2022-08-22T16:40:15.237Z,2.05
2022-08-22T16:42:46.433Z,2.10
2022-08-22T16:45:23.839Z,1.88
2022-08-22T16:47:58.378Z,1.95
2022-08-22T16:50:31.319Z,2.00
2022-08-22T16:53:03.017Z,2.05
2022-08-22T16:55:55.298Z,2.22
2022-08-22T16:58:59.140Z,1.80
2022-08-22T17:01:44.747Z,2.70
2022-08-22T17:04:19.853Z,2.15
2022-08-22T17:07:17.731Z,1.90
2022-08-22T17:10:12.174Z,2.10
2022-08-22T17:12:52.969Z,2.20
2022-08-22T17:15:28.643Z,1.90
2022-08-22T17:18:11.745Z,1.92
2022-08-22T17:20:45.452Z,2.00
2022-08-22T17:23:18.193Z,1.95
2022-08-22T17:25:56.273Z,2.05
2022-08-22T17:28:34.290Z,2.00
2022-08-22T17:31:05.128Z,2.00
2022-08-22T17:33:52.343Z,2.00
2022-08-22T17:36:26.579Z,1.92
2022-08-22T17:39:13.342Z,2.00
2022-08-22T17:41:47.789Z,2.00
2022-08-22T17:44:20.105Z,2.17
2022-08-22T17:46:51.411Z,2.10
2022-08-22T17:49:46.534Z,2.00
2022-08-22T17:52:18.118Z,2.10
2022-08-22T17:54:50.986Z,2.00
2022-08-22T17:57:27.747Z,2.30
2022-08-22T17:59:59.576Z,2.38
2022-08-22T18:02:31.319Z,2.08
2022-08-22T18:05:06.207Z,2.10
2022-08-22T18:07:48.723Z,2.40
2022-08-22T18:10:22.834Z,2.17
2022-08-22T18:12:57.086Z,2.20
2022-08-22T18:15:29.498Z,2.30
2022-08-22T18:18:00.984Z,2.30
2022-08-22T18:20:34.800Z,2.53
2022-08-22T18:23:06.609Z,2.35
2022-08-22T18:26:00.801Z,2.92
2022-08-22T18:28:33.815Z,3.33
2022-08-22T18:31:05.281Z,2.90
2022-08-22T18:33:37.679Z,3.10
2022-08-22T18:36:13.771Z,2.83
2022-08-22T18:38:51.399Z,2.72
2022-08-22T18:41:26.606Z,2.30
2022-08-22T18:43:56.056Z,2.40
2022-08-22T18:46:43.979Z,2.83
2022-08-22T18:49:40.292Z,2.45
2022-08-22T18:52:40.537Z,2.75
2022-08-22T18:55:42.475Z,2.40
2022-08-22T18:58:36.286Z,2.08
2022-08-22T19:01:47.714Z,2.42
2022-08-22T19:04:56.046Z,2.60
2022-08-22T19:07:38.692Z,2.38
2022-08-22T19:10:37.151Z,2.20
2022-08-22T19:13:35.929Z,2.20
2022-08-22T19:16:15.456Z,2.40
2022-08-22T19:18:45.580Z,2.50
2022-08-22T19:21:35.593Z,2.50
2022-08-22T19:24:11.003Z,2.15
2022-08-22T19:26:42.815Z,2.42
2022-08-22T19:30:02.751Z,2.30
2022-08-22T19:33:03.304Z,2.42
2022-08-22T19:35:40.585Z,2.38
2022-08-22T19:38:10.624Z,2.20
2022-08-22T19:40:58.566Z,2.30
2022-08-22T19:43:31.648Z,2.28
2022-08-22T19:46:03.704Z,2.20
2022-08-22T19:48:36.399Z,2.40
2022-08-22T19:51:10.776Z,2.53
2022-08-22T19:53:46.015Z,2.20
2022-08-22T19:56:23.167Z,2.47
2022-08-22T19:59:02.019Z,2.00
2022-08-22T20:01:56.287Z,2.50
2022-08-22T20:04:44.550Z,2.20
2022-08-22T20:07:18.871Z,2.28
2022-08-22T20:09:50.526Z,2.40
2022-08-22T20:12:26.756Z,2.38
2022-08-22T20:14:57.620Z,2.33
2022-08-22T20:17:40.851Z,2.30
2022-08-22T20:20:18.970Z,2.30
2022-08-22T20:22:52.925Z,2.30
2022-08-22T20:25:43.187Z,2.47
2022-08-22T20:28:31.182Z,2.10
2022-08-22T20:31:02.291Z,2.80
2022-08-22T20:33:35.074Z,2.85
2022-08-22T20:36:05.807Z,2.60
2022-08-22T20:38:38.469Z,2.95
2022-08-22T20:41:16.140Z,2.60
2022-08-22T20:43:53.139Z,2.85
2022-08-22T20:46:38.838Z,2.60
2022-08-22T20:49:14.533Z,2.53
2022-08-22T20:51:53.074Z,2.40
2022-08-22T20:54:24.050Z,2.40
2022-08-22T20:56:55.583Z,2.60
2022-08-22T20:59:35.894Z,2.53
2022-08-22T21:02:15.087Z,2.53
2022-08-22T21:04:49.815Z,2.75
2022-08-22T21:07:29.509Z,2.88
2022-08-22T21:10:16.690Z,2.90
2022-08-22T21:13:03.678Z,2.90
2022-08-22T21:15:36.527Z,2.75
2022-08-22T21:18:06.242Z,2.60
2022-08-22T21:20:37.263Z,2.67
2022-08-22T21:23:09.002Z,2.13
2022-08-22T21:25:50.246Z,2.20
2022-08-22T21:28:29.235Z,2.42
2022-08-22T21:31:01.837Z,2.40
2022-08-22T21:33:31.277Z,2.67
2022-08-22T21:36:01.750Z,2.80
2022-08-22T21:38:31.234Z,2.58
2022-08-22T21:41:05.670Z,2.10
2022-08-22T21:43:36.991Z,2.30
2022-08-22T21:46:09.434Z,2.50
2022-08-22T21:48:41.254Z,2.30
2022-08-22T21:51:33.089Z,2.10
2022-08-22T21:54:24.488Z,2.40
2022-08-22T21:56:54.505Z,2.10
2022-08-22T21:59:25.762Z,2.63
2022-08-22T22:01:58.015Z,2.60
2022-08-22T22:04:27.425Z,2.50
2022-08-22T22:06:57.781Z,2.42
2022-08-22T22:09:27.222Z,2.60
2022-08-22T22:11:56.659Z,2.60
2022-08-22T22:14:26.105Z,2.50
2022-08-22T22:16:58.131Z,2.70
2022-08-22T22:19:27.586Z,2.55
2022-08-22T22:21:57.068Z,2.45
2022-08-22T22:24:26.555Z,2.20
2022-08-22T22:26:56.023Z,2.22
2022-08-22T22:29:25.459Z,2.15
2022-08-22T22:31:54.903Z,2.25
2022-08-22T22:34:26.920Z,2.28
2022-08-22T22:36:56.415Z,2.35
2022-08-22T22:39:25.878Z,2.13
2022-08-22T22:41:55.310Z,2.30
2022-08-22T22:44:25.643Z,2.17
2022-08-22T22:46:58.863Z,2.20
2022-08-22T22:49:31.058Z,2.20
2022-08-22T22:52:00.558Z,2.33
2022-08-22T22:54:30.151Z,2.42
2022-08-22T22:56:59.663Z,2.50
2022-08-22T22:59:29.277Z,2.53
2022-08-22T23:02:03.391Z,2.88
2022-08-22T23:07:04.981Z,2.95
2022-08-22T23:09:38.571Z,2.85
2022-08-22T23:12:14.290Z,2.90
2022-08-22T23:14:43.745Z,2.65
2022-08-22T23:17:13.246Z,2.78
2022-08-22T23:19:46.224Z,2.30
2022-08-22T23:22:17.271Z,2.35
2022-08-22T23:24:46.735Z,2.50
2022-08-22T23:27:16.211Z,2.22
2022-08-22T23:29:45.702Z,2.25
2022-08-22T23:32:15.263Z,2.30
2022-08-22T23:34:48.887Z,2.30
2022-08-22T23:37:19.435Z,2.20
2022-08-22T23:39:48.919Z,2.40
2022-08-22T23:42:18.654Z,2.00
2022-08-22T23:44:48.182Z,2.40
2022-08-22T23:47:17.759Z,2.65
2022-08-22T23:49:49.782Z,2.10
2022-08-22T23:52:19.522Z,2.20
2022-08-22T23:54:51.590Z,2.28
2022-08-22T23:57:27.483Z,2.20
2022-08-22T23:59:58.338Z,2.20
